CheckWX is a tool to help pilots better visualize weather data.  It is not intended as a substitute for an official pre-flight weather briefing.

12:01:02 UTC

CYVP METAR
Kuujjuaq Airport
Kuujjuaq, Canada
Current

1 hour ago

CYVP 161100Z 02008KT 15SM FEW006 SCT010 OVC022 02/01 A2945 RMK ST2ST2SC4 INTMT -DZ SLP976
Observed
Oct-16 @ 11:00 UTC
Wind
  • 020° at 8 KTS
Visibility
15 SM
Flight Rules
MVFR
Cloud Levels
  • Few at 600' AGL
  • Scattered at 1,000' AGL
  • Overcast at 2,200' AGL
Temperature
C / 36°F
Dewpoint
C / 34°F
Humidity
93%
Altimeter
29.45" Hg
Pressure
997.32 hPa
Previous

2 hours ago

CYVP 161000Z 06008KT 12SM -DZ SCT006 BKN010 BKN023 OVC030 02/01 A2944 RMK ST3SC3SC1SC1 SLP972
Observed
Oct-16 @ 10:00 UTC
Wind
  • 060° at 8 KTS
Visibility
12 SM
Flight Rules
MVFR
Conditions
Light Drizzle
Cloud Levels
  • Scattered at 600' AGL
  • Broken at 1,000' AGL
  • Broken at 2,300' AGL
  • Overcast at 3,000' AGL
Temperature
C / 36°F
Dewpoint
C / 34°F
Humidity
93%
Altimeter
29.44" Hg
Pressure
996.92 hPa
Previous

2 hours ago

CYVP 160947Z 07007KT 6SM -RADZ FEW006 BKN012 OVC022 02/02 A2944 RMK SF2SC4SC2 SLP972
Observed
Oct-16 @ 09:47 UTC
Wind
  • 070° at 7 KTS
Visibility
6 SM
Flight Rules
MVFR
Conditions
Light Rain, Light Drizzle
Cloud Levels
  • Few at 600' AGL
  • Broken at 1,200' AGL
  • Overcast at 2,200' AGL
Temperature
C / 36°F
Dewpoint
C / 36°F
Humidity
100%
Altimeter
29.44" Hg
Pressure
996.92 hPa